Time;durP1;ratioP1;P1;durP2;ratioP2;P2;SDS_P1;SDS_P2;PMS_P1;PMS_P2;Temp;Humidity;BMP_temperature;BMP_pressure;BME280_temperature;BME280_humidity;BME280_pressure;Samples;Min_cycle;Max_cycle;Signal;HPM_P1;HPM_P2
2022/03/24 00:00:44;;;;;;;25.85;11.35;;;;;;;-0.87;67.03;99527.88;2627252;28;20117;-79
2022/03/24 00:02:07;;;;;;;28.10;12.07;;;;;;;-0.85;66.48;99538.19;2626778;28;20043;-82
2022/03/24 00:03:23;;;;;;;24.77;10.93;;;;;;;-0.87;66.49;99533.03;2626711;28;20056;-78
2022/03/24 00:04:39;;;;;;;23.08;10.80;;;;;;;-0.86;67.03;99536.44;2626878;28;20343;-82
2022/03/24 00:05:55;;;;;;;25.30;11.38;;;;;;;-0.83;66.94;99533.13;2627116;28;20044;-79
2022/03/24 00:07:12;;;;;;;23.30;11.50;;;;;;;-0.84;66.78;99529.66;2626316;28;20831;-77
2022/03/24 00:08:27;;;;;;;22.77;11.07;;;;;;;-0.86;66.58;99529.63;2627359;28;20106;-78
2022/03/24 00:09:43;;;;;;;26.67;10.98;;;;;;;-0.86;66.08;99526.16;2627316;28;20056;-79
2022/03/24 00:11:00;;;;;;;23.33;11.38;;;;;;;-0.87;66.81;99533.03;2626591;28;20044;-78
2022/03/24 00:12:16;;;;;;;27.45;11.68;;;;;;;-0.86;66.32;99529.63;2626928;28;20052;-78
2022/03/24 00:13:32;;;;;;;26.67;10.70;;;;;;;-0.83;66.50;99530.56;2627484;28;20052;-78
2022/03/24 00:14:48;;;;;;;25.55;11.48;;;;;;;-0.84;66.31;99528.81;2626820;28;20074;-78
2022/03/24 00:16:04;;;;;;;25.83;10.48;;;;;;;-0.84;66.13;99526.22;2626480;28;20048;-80
2022/03/24 00:17:19;;;;;;;26.42;10.95;;;;;;;-0.87;65.78;99529.56;2625930;28;20139;-78
2022/03/24 00:18:35;;;;;;;26.95;11.07;;;;;;;-0.89;65.67;99526.06;2626571;28;20461;-78
2022/03/24 00:19:51;;;;;;;28.70;11.25;;;;;;;-0.89;66.04;99528.63;2626338;28;20055;-78
2022/03/24 00:21:06;;;;;;;24.23;10.85;;;;;;;-0.92;66.43;99524.25;2626738;28;20642;-78
2022/03/24 00:22:22;;;;;;;26.20;11.63;;;;;;;-0.93;65.88;99529.34;2627311;28;20055;-81
2022/03/24 00:23:38;;;;;;;26.17;11.10;;;;;;;-0.96;67.01;99524.97;2626828;28;20052;-78
2022/03/24 00:24:53;;;;;;;28.27;11.55;;;;;;;-0.99;67.81;99530.00;2626340;28;20843;-77
2022/03/24 00:26:09;;;;;;;26.25;10.85;;;;;;;-0.98;67.04;99526.59;2626858;28;20080;-79
2022/03/24 00:27:25;;;;;;;26.42;11.80;;;;;;;-1.01;66.63;99529.94;2626701;28;20490;-78
2022/03/24 00:28:42;;;;;;;24.95;11.18;;;;;;;-1.03;66.11;99531.59;2626615;28;20078;-80
2022/03/24 00:29:57;;;;;;;25.77;11.15;;;;;;;-1.04;66.05;99531.53;2627472;28;20048;-78
2022/03/24 00:31:14;;;;;;;23.70;11.18;;;;;;;-1.09;66.24;99527.91;2626501;28;20472;-79
2022/03/24 00:32:29;;;;;;;25.00;10.70;;;;;;;-1.10;66.11;99532.19;2627005;28;20578;-79
2022/03/24 00:33:45;;;;;;;26.08;11.45;;;;;;;-1.17;66.50;99531.09;2626937;28;20143;-78
2022/03/24 00:35:01;;;;;;;29.13;11.57;;;;;;;-1.25;66.45;99535.06;2626945;28;20047;-79
2022/03/24 00:36:17;;;;;;;22.83;11.32;;;;;;;-1.28;66.86;99530.66;2626294;28;20055;-79
2022/03/24 00:37:33;;;;;;;23.20;11.10;;;;;;;-1.31;67.24;99533.13;2626467;28;20083;-78
2022/03/24 00:38:52;;;;;;;24.67;10.80;;;;;;;-1.24;68.29;99535.94;2627145;28;20139;-78
2022/03/24 00:40:08;;;;;;;25.40;10.98;;;;;;;-1.19;68.71;99532.72;2628794;28;20051;-78
2022/03/24 00:41:24;;;;;;;24.88;11.95;;;;;;;-1.16;68.57;99537.09;2628968;28;20052;-80
2022/03/24 00:42:40;;;;;;;25.33;11.25;;;;;;;-1.14;67.96;99533.78;2629371;28;20047;-78
2022/03/24 00:43:56;;;;;;;25.40;11.32;;;;;;;-1.13;66.95;99526.91;2628593;28;20062;-78
2022/03/24 00:45:14;;;;;;;25.85;10.77;;;;;;;-1.13;66.19;99524.34;2628547;28;20083;-79
2022/03/24 00:46:31;;;;;;;23.70;10.20;;;;;;;-1.16;65.89;99535.41;2628860;28;20530;-80
2022/03/24 00:47:46;;;;;;;25.45;10.25;;;;;;;-1.21;65.91;99528.34;2628686;28;20054;-78
2022/03/24 00:49:02;;;;;;;23.80;11.07;;;;;;;-1.27;65.93;99529.00;2629205;28;20059;-78
2022/03/24 00:50:18;;;;;;;24.48;10.57;;;;;;;-1.31;65.74;99527.13;2628505;28;20060;-77
2022/03/24 00:51:34;;;;;;;22.45;10.63;;;;;;;-1.37;65.90;99525.22;2628957;28;20048;-77
2022/03/24 00:52:49;;;;;;;23.90;10.55;;;;;;;-1.40;65.61;99529.34;2629149;28;20051;-77
2022/03/24 00:54:07;;;;;;;25.77;10.20;;;;;;;-1.48;65.94;99526.50;2628689;28;20059;-78
2022/03/24 00:55:22;;;;;;;27.05;10.88;;;;;;;-1.54;66.76;99526.25;2628971;28;20170;-79
2022/03/24 00:56:38;;;;;;;24.48;10.45;;;;;;;-1.63;66.97;99522.53;2628198;28;20171;-78
2022/03/24 00:57:54;;;;;;;21.08;10.55;;;;;;;-1.67;67.24;99519.78;2628661;28;20214;-80
2022/03/24 00:59:09;;;;;;;21.75;10.40;;;;;;;-1.68;67.73;99520.59;2629141;28;20524;-78
2022/03/24 01:00:25;;;;;;;21.13;9.95;;;;;;;-1.72;67.58;99517.91;2628956;28;20444;-78
2022/03/24 01:01:41;;;;;;;23.20;10.80;;;;;;;-1.72;67.15;99522.16;2628738;28;20044;-79
2022/03/24 01:02:58;;;;;;;24.90;10.50;;;;;;;-1.77;67.66;99521.09;2628864;28;20154;-78
2022/03/24 01:04:14;;;;;;;23.65;10.90;;;;;;;-1.83;68.56;99520.84;2628755;28;20083;-78
2022/03/24 01:05:29;;;;;;;24.08;11.13;;;;;;;-1.88;68.43;99520.69;2628610;28;20052;-78
2022/03/24 01:06:45;;;;;;;21.27;10.05;;;;;;;-1.96;68.71;99520.38;2628557;28;20056;-78
2022/03/24 01:08:00;;;;;;;23.30;10.73;;;;;;;-1.96;68.81;99516.94;2628274;28;20082;-78
2022/03/24 01:09:16;;;;;;;22.48;10.32;;;;;;;-1.94;69.24;99512.75;2628945;28;20058;-78
2022/03/24 01:10:32;;;;;;;26.00;10.40;;;;;;;-1.95;69.79;99518.69;2628738;28;20051;-79
2022/03/24 01:11:48;;;;;;;21.77;9.95;;;;;;;-1.94;70.22;99520.44;2629017;28;20560;-80
2022/03/24 01:13:03;;;;;;;24.45;11.00;;;;;;;-1.96;70.62;99520.38;2627169;28;20082;-79
2022/03/24 01:14:19;;;;;;;21.65;10.18;;;;;;;-1.97;69.69;99518.63;2628260;28;20056;-78
2022/03/24 01:15:35;;;;;;;23.05;11.05;;;;;;;-1.96;70.50;99517.78;2628632;28;20093;-78
2022/03/24 01:16:51;;;;;;;28.70;11.50;;;;;;;-1.95;70.14;99511.88;2628731;28;20072;-78
2022/03/24 01:18:07;;;;;;;29.42;11.93;;;;;;;-1.90;69.83;99518.06;2628551;28;20091;-78
2022/03/24 01:19:24;;;;;;;28.50;11.02;;;;;;;-1.91;69.22;99521.44;2628044;28;20051;-83
2022/03/24 01:20:43;;;;;;;23.77;11.63;;;;;;;-1.88;69.17;99521.56;2629090;28;20048;-78
2022/03/24 01:22:00;;;;;;;24.20;10.85;;;;;;;-1.89;68.73;99519.81;2628012;28;20044;-79
2022/03/24 01:23:15;;;;;;;24.67;10.85;;;;;;;-1.89;68.51;99516.34;2628572;28;20044;-78
2022/03/24 01:24:31;;;;;;;25.02;11.05;;;;;;;-1.87;68.16;99514.75;2628600;28;20113;-81
2022/03/24 01:25:47;;;;;;;27.83;10.85;;;;;;;-1.90;68.72;99517.16;2628749;28;20056;-78
2022/03/24 01:27:04;;;;;;;22.63;11.27;;;;;;;-1.91;68.48;99513.75;2627965;28;20491;-78
2022/03/24 01:28:21;;;;;;;25.65;11.02;;;;;;;-1.94;68.73;99518.75;2628769;28;20148;-78
2022/03/24 01:29:37;;;;;;;22.73;10.93;;;;;;;-1.98;69.02;99516.88;2628681;28;20588;-79
2022/03/24 01:30:52;;;;;;;26.45;11.65;;;;;;;-1.97;68.44;99512.63;2628881;28;20070;-79
2022/03/24 01:32:08;;;;;;;25.75;11.63;;;;;;;-2.01;69.92;99511.63;2628301;28;21002;-80
2022/03/24 01:33:24;;;;;;;22.42;10.90;;;;;;;-2.11;71.34;99509.50;2629207;28;20054;-78
2022/03/24 01:34:39;;;;;;;22.48;10.32;;;;;;;-2.06;70.33;99518.28;2628127;28;20043;-78
2022/03/24 01:35:55;;;;;;;25.92;10.85;;;;;;;-2.05;70.24;99513.19;2628793;28;20048;-79
2022/03/24 01:37:11;;;;;;;23.33;10.77;;;;;;;-2.03;70.81;99508.13;2628402;28;20044;-79
2022/03/24 01:38:27;;;;;;;23.75;10.93;;;;;;;-2.11;70.78;99512.94;2628321;28;20048;-77
2022/03/24 01:39:42;;;;;;;25.63;11.52;;;;;;;-2.16;72.05;99505.06;2628840;28;20040;-78
2022/03/24 01:40:58;;;;;;;25.15;12.23;;;;;;;-2.14;71.46;99511.13;2627277;28;20510;-80
2022/03/24 01:42:16;;;;;;;23.55;11.23;;;;;;;-2.07;70.86;99509.69;2627469;28;20110;-78
2022/03/24 01:43:32;;;;;;;28.67;11.13;;;;;;;-2.05;70.66;99514.88;2628391;28;20047;-78
2022/03/24 01:44:48;;;;;;;24.10;9.98;;;;;;;-2.06;70.19;99502.88;2628780;28;20056;-78
2022/03/24 01:46:04;;;;;;;21.05;10.05;;;;;;;-2.08;69.72;99507.06;2627327;28;20087;-83
2022/03/24 01:47:20;;;;;;;26.40;11.52;;;;;;;-2.08;69.51;99507.94;2628535;28;20135;-79
2022/03/24 01:48:35;;;;;;;25.55;10.85;;;;;;;-2.08;69.31;99499.38;2628494;28;20071;-79
2022/03/24 01:49:53;;;;;;;22.75;10.73;;;;;;;-2.09;70.12;99506.19;2628530;28;20048;-78
2022/03/24 01:51:09;;;;;;;24.48;10.50;;;;;;;-2.10;70.18;99503.53;2628433;28;20098;-78
2022/03/24 01:52:26;;;;;;;24.27;10.70;;;;;;;-2.09;69.58;99506.19;2628559;28;20117;-79
2022/03/24 01:53:41;;;;;;;25.83;10.88;;;;;;;-2.07;69.26;99511.38;2628085;28;20044;-79
2022/03/24 01:54:59;;;;;;;24.95;10.40;;;;;;;-2.09;69.52;99501.06;2628303;28;20731;-78
2022/03/24 01:56:15;;;;;;;21.95;10.60;;;;;;;-2.10;68.65;99508.66;2628136;28;20682;-79
2022/03/24 01:57:31;;;;;;;24.83;10.68;;;;;;;-2.10;69.11;99503.53;2628296;28;20144;-79
2022/03/24 01:58:50;;;;;;;23.80;11.25;;;;;;;-2.11;68.85;99506.91;2627678;28;20101;-78
2022/03/24 02:00:07;;;;;;;26.52;10.57;;;;;;;-2.16;68.94;99509.34;2627426;28;20052;-80
2022/03/24 02:01:29;;;;;;;27.08;11.38;;;;;;;-2.19;69.14;99509.19;2628266;28;20110;-80
2022/03/24 02:02:45;;;;;;;24.65;10.32;;;;;;;-2.19;69.26;99514.31;2628224;28;20052;-79
2022/03/24 02:04:04;;;;;;;19.38;9.77;;;;;;;-2.21;69.33;99508.25;2627878;28;20198;-79
2022/03/24 02:05:20;;;;;;;23.15;10.88;;;;;;;-2.21;68.47;99510.81;2628124;28;20490;-80
2022/03/24 02:06:36;;;;;;;20.33;10.40;;;;;;;-2.22;68.77;99509.06;2627335;28;20060;-78
2022/03/24 02:07:52;;;;;;;23.55;10.93;;;;;;;-2.22;68.24;99507.38;2627264;28;20059;-78
2022/03/24 02:09:09;;;;;;;25.52;10.88;;;;;;;-2.27;68.28;99502.06;2628422;28;20086;-78
2022/03/24 02:10:25;;;;;;;24.13;10.85;;;;;;;-2.29;68.61;99508.84;2627982;28;20506;-78
2022/03/24 02:11:41;;;;;;;21.20;10.60;;;;;;;-2.30;68.34;99506.19;2628226;28;20098;-79
2022/03/24 02:12:57;;;;;;;23.00;10.32;;;;;;;-2.30;68.17;99503.63;2628387;28;20052;-79
2022/03/24 02:14:13;;;;;;;24.45;10.20;;;;;;;-2.34;68.67;99505.19;2627673;28;20999;-78
2022/03/24 02:15:31;;;;;;;23.25;10.63;;;;;;;-2.40;68.95;99510.06;2628527;28;20486;-78
2022/03/24 02:16:48;;;;;;;23.58;11.13;;;;;;;-2.46;69.20;99503.00;2627273;28;20051;-78
2022/03/24 02:18:10;;;;;;;25.98;11.27;;;;;;;-2.47;69.02;99506.38;2627726;28;20071;-78
2022/03/24 02:19:26;;;;;;;22.00;9.88;;;;;;;-2.48;69.10;99506.28;2628093;28;20048;-78
2022/03/24 02:20:42;;;;;;;23.23;10.75;;;;;;;-2.53;69.68;99503.53;2628089;28;20484;-80
2022/03/24 02:22:16;;;;;;;23.05;10.50;;;;;;;-2.66;69.84;99501.25;2628378;28;20051;-79
2022/03/24 02:23:32;;;;;;;25.73;10.57;;;;;;;-2.73;70.21;99501.03;2628224;28;20106;-79
2022/03/24 02:24:48;;;;;;;22.75;10.70;;;;;;;-2.72;69.97;99501.91;2627616;28;20452;-83
2022/03/24 02:26:07;;;;;;;20.73;10.23;;;;;;;-2.76;70.52;99505.13;2627820;28;20083;-79
2022/03/24 02:27:24;;;;;;;23.48;10.23;;;;;;;-2.78;70.35;99507.66;2628086;28;20595;-78
2022/03/24 02:28:42;;;;;;;21.20;9.48;;;;;;;-2.80;70.65;99504.13;2628042;28;20073;-78
2022/03/24 02:29:57;;;;;;;24.80;10.55;;;;;;;-2.84;70.60;99502.25;2628114;28;20040;-78
2022/03/24 02:31:13;;;;;;;19.58;10.30;;;;;;;-2.88;70.57;99500.38;2628291;28;20135;-78
2022/03/24 02:32:29;;;;;;;22.90;9.85;;;;;;;-2.88;70.27;99508.91;2627281;28;20414;-78
2022/03/24 02:33:45;;;;;;;19.77;9.35;;;;;;;-2.88;71.33;99508.06;2627053;28;20089;-85
2022/03/24 02:35:00;;;;;;;20.17;9.65;;;;;;;-2.87;70.73;99502.13;2628151;28;20048;-78
2022/03/24 02:36:16;;;;;;;21.13;9.73;;;;;;;-2.86;71.95;99499.63;2628360;28;20060;-79
2022/03/24 02:37:32;;;;;;;25.45;11.23;;;;;;;-2.82;72.05;99498.06;2627596;28;20126;-78
2022/03/24 02:38:48;;;;;;;22.50;10.55;;;;;;;-2.84;72.86;99499.69;2628108;28;20047;-78
2022/03/24 02:40:04;;;;;;;25.40;11.50;;;;;;;-2.84;72.88;99505.69;2627649;28;20101;-80
2022/03/24 02:41:19;;;;;;;23.83;10.32;;;;;;;-2.84;72.49;99499.69;2627851;28;20079;-82
2022/03/24 02:42:38;;;;;;;23.58;11.25;;;;;;;-2.82;71.79;99500.63;2627715;28;20491;-80
2022/03/24 02:43:53;;;;;;;22.17;11.30;;;;;;;-2.79;72.11;99503.34;2628137;28;21123;-82
2022/03/24 02:45:10;;;;;;;21.35;10.48;;;;;;;-2.79;71.86;99502.44;2627768;28;20047;-79
2022/03/24 02:46:26;;;;;;;24.13;11.30;;;;;;;-2.78;71.58;99502.53;2627803;28;20048;-78
2022/03/24 02:47:41;;;;;;;25.63;11.32;;;;;;;-2.75;71.62;99502.66;2627609;28;20055;-78
2022/03/24 02:48:57;;;;;;;22.40;10.63;;;;;;;-2.74;71.63;99501.84;2627812;28;20067;-78
2022/03/24 02:50:13;;;;;;;25.45;11.40;;;;;;;-2.75;71.32;99506.88;2627270;28;20052;-78
2022/03/24 02:51:32;;;;;;;24.30;10.98;;;;;;;-2.79;71.46;99505.00;2627485;28;20676;-79
2022/03/24 02:52:47;;;;;;;24.58;11.02;;;;;;;-2.78;72.32;99502.53;2628027;28;20131;-79
2022/03/24 02:54:06;;;;;;;22.75;11.02;;;;;;;-2.78;72.18;99494.84;2627773;28;20054;-78
2022/03/24 02:55:21;;;;;;;25.05;11.80;;;;;;;-2.78;71.62;99501.63;2627954;28;20498;-79
2022/03/24 02:56:38;;;;;;;25.27;9.88;;;;;;;-2.79;71.14;99502.44;2627831;28;20148;-79
2022/03/24 02:57:53;;;;;;;22.00;10.48;;;;;;;-2.81;72.06;99502.38;2627413;28;20055;-80
2022/03/24 02:59:10;;;;;;;27.67;11.27;;;;;;;-2.81;72.32;99504.94;2627545;28;20478;-79
2022/03/24 03:00:27;;;;;;;22.35;10.10;;;;;;;-2.85;73.60;99503.94;2627600;28;20044;-79
2022/03/24 03:01:52;;;;;;;24.05;10.45;;;;;;;-2.88;73.60;99497.81;2626301;28;20060;-78
2022/03/24 03:03:10;;;;;;;26.73;11.35;;;;;;;-2.92;74.07;99506.19;2627778;28;20093;-84
2022/03/24 03:04:27;;;;;;;23.95;10.70;;;;;;;-2.87;74.08;99504.69;2627478;28;20482;-77
2022/03/24 03:05:42;;;;;;;27.88;10.90;;;;;;;-2.86;73.60;99504.75;2626885;28;20415;-79
2022/03/24 03:07:02;;;;;;;22.65;10.27;;;;;;;-2.86;73.44;99503.88;2627145;28;20059;-80
2022/03/24 03:08:19;;;;;;;24.40;10.48;;;;;;;-2.88;72.90;99502.94;2627422;28;20539;-79
2022/03/24 03:09:36;;;;;;;25.17;11.48;;;;;;;-2.98;72.75;99504.22;2627565;28;20051;-78
2022/03/24 03:10:55;;;;;;;24.38;10.45;;;;;;;-2.98;71.75;99499.97;2627682;28;20040;-78
2022/03/24 03:12:11;;;;;;;28.38;10.48;;;;;;;-2.96;71.34;99509.41;2627515;28;20482;-78
2022/03/24 03:13:27;;;;;;;20.83;9.50;;;;;;;-2.98;71.20;99504.22;2627406;28;20109;-79
2022/03/24 03:14:43;;;;;;;27.55;10.82;;;;;;;-3.01;71.51;99504.97;2627440;28;20079;-78
2022/03/24 03:15:58;;;;;;;24.42;11.18;;;;;;;-3.01;70.98;99506.63;2627074;28;20087;-79
2022/03/24 03:17:15;;;;;;;22.88;10.27;;;;;;;-3.03;71.84;99501.47;2627449;28;20803;-78
2022/03/24 03:18:32;;;;;;;24.05;10.25;;;;;;;-3.05;71.94;99508.22;2627245;28;20051;-78
2022/03/24 03:19:48;;;;;;;23.35;10.50;;;;;;;-3.06;72.03;99510.69;2627327;28;20479;-77
2022/03/24 03:21:03;;;;;;;27.92;11.52;;;;;;;-2.96;72.91;99510.28;2627034;28;20087;-78
2022/03/24 03:22:19;;;;;;;21.27;9.70;;;;;;;-3.02;72.39;99504.88;2627393;28;20048;-78
2022/03/24 03:23:38;;;;;;;22.58;10.68;;;;;;;-3.04;73.22;99504.84;2627580;28;20117;-78
2022/03/24 03:24:53;;;;;;;22.02;10.27;;;;;;;-3.09;73.38;99508.84;2627470;28;20051;-78
2022/03/24 03:26:11;;;;;;;23.10;10.85;;;;;;;-3.08;73.36;99508.03;2627241;28;20118;-79
2022/03/24 03:27:31;;;;;;;26.52;11.15;;;;;;;-3.07;74.31;99512.38;2626915;28;20056;-78
2022/03/24 03:28:47;;;;;;;25.48;9.98;;;;;;;-3.05;73.05;99515.91;2627014;28;20590;-78
2022/03/24 03:30:03;;;;;;;27.25;11.40;;;;;;;-3.06;72.86;99510.69;2626538;28;20071;-80
2022/03/24 03:31:21;;;;;;;26.25;11.05;;;;;;;-3.07;72.93;99516.63;2627529;28;20658;-79
2022/03/24 03:32:37;;;;;;;25.65;10.18;;;;;;;-3.07;72.44;99517.50;2627544;28;20515;-78
2022/03/24 03:33:53;;;;;;;26.27;11.07;;;;;;;-3.06;72.49;99514.16;2627143;28;20044;-79
2022/03/24 03:35:08;;;;;;;24.27;10.88;;;;;;;-3.06;72.23;99514.16;2627144;28;20869;-78
2022/03/24 03:36:24;;;;;;;22.75;10.50;;;;;;;-3.07;71.72;99514.94;2627491;28;20048;-79
2022/03/24 03:37:40;;;;;;;24.58;10.63;;;;;;;-3.19;71.93;99519.53;2626074;28;20438;-78
2022/03/24 03:38:56;;;;;;;24.67;10.32;;;;;;;-3.21;72.10;99523.69;2626552;28;20052;-78
2022/03/24 03:40:13;;;;;;;28.48;11.52;;;;;;;-3.22;72.74;99519.38;2627685;28;20109;-79
2022/03/24 03:41:29;;;;;;;25.13;11.07;;;;;;;-3.19;72.83;99522.09;2626985;28;20395;-78
2022/03/24 03:42:45;;;;;;;24.25;10.88;;;;;;;-3.20;73.16;99526.31;2627198;28;20463;-78
2022/03/24 03:44:01;;;;;;;26.45;11.30;;;;;;;-3.17;73.87;99526.44;2626787;28;20117;-78
2022/03/24 03:45:17;;;;;;;23.42;11.52;;;;;;;-3.11;73.56;99518.16;2627303;28;20400;-78
2022/03/24 03:46:32;;;;;;;24.45;10.40;;;;;;;-3.06;72.53;99518.38;2627095;28;20079;-78
2022/03/24 03:47:48;;;;;;;30.60;13.85;;;;;;;-3.10;73.69;99514.78;2626799;28;20218;-78
2022/03/24 03:49:07;;;;;;;29.17;12.55;;;;;;;-3.10;73.32;99524.19;2626936;28;20689;-79
2022/03/24 03:50:25;;;;;;;32.22;13.25;;;;;;;-3.15;74.41;99521.41;2627435;28;20050;-78
2022/03/24 03:51:40;;;;;;;26.50;12.50;;;;;;;-3.20;74.61;99522.91;2626853;28;20074;-78
2022/03/24 03:52:56;;;;;;;28.38;12.63;;;;;;;-3.21;74.36;99523.69;2626670;28;20075;-80
2022/03/24 03:54:12;;;;;;;25.73;11.57;;;;;;;-3.26;73.45;99521.78;2627007;28;20048;-78
2022/03/24 03:55:28;;;;;;;25.17;10.88;;;;;;;-3.27;73.78;99524.31;2626676;28;20048;-77
2022/03/24 03:56:43;;;;;;;29.52;12.55;;;;;;;-3.28;74.13;99525.13;2627349;28;20040;-79
2022/03/24 03:57:59;;;;;;;24.63;11.73;;;;;;;-3.30;74.07;99531.84;2627021;28;20145;-78
2022/03/24 03:59:14;;;;;;;31.55;12.30;;;;;;;-3.35;74.22;99521.41;2627047;28;20048;-78
2022/03/24 04:02:05;;;;;;;25.08;11.18;;;;;;;-3.34;73.42;99520.59;2626652;28;20086;-78
2022/03/24 04:03:20;;;;;;;26.42;11.57;;;;;;;-3.37;73.06;99528.13;2626638;28;20510;-78
2022/03/24 04:04:36;;;;;;;24.58;11.25;;;;;;;-3.39;73.26;99521.19;2626877;28;20121;-78
2022/03/24 04:05:57;;;;;;;22.45;10.48;;;;;;;-3.39;72.40;99521.19;2626492;28;20067;-77
2022/03/24 04:07:12;;;;;;;24.77;11.30;;;;;;;-3.49;72.76;99523.31;2624204;28;20058;-78
2022/03/24 04:08:28;;;;;;;26.60;11.75;;;;;;;-3.51;72.80;99524.03;2626518;28;20048;-79
2022/03/24 04:09:45;;;;;;;23.55;11.20;;;;;;;-3.52;72.73;99529.97;2626041;28;20319;-78
2022/03/24 04:11:00;;;;;;;22.85;11.38;;;;;;;-3.56;73.46;99527.28;2626010;28;20168;-78
2022/03/24 04:12:16;;;;;;;23.35;11.40;;;;;;;-3.55;73.78;99525.63;2626395;28;20086;-81
2022/03/24 04:13:32;;;;;;;23.33;11.45;;;;;;;-3.57;74.06;99533.22;2625780;28;20459;-79
2022/03/24 04:14:47;;;;;;;25.17;11.82;;;;;;;-3.56;74.20;99532.41;2626377;28;20047;-79
2022/03/24 04:16:03;;;;;;;25.60;11.82;;;;;;;-3.53;73.68;99534.25;2626526;28;20048;-78
2022/03/24 04:17:19;;;;;;;26.38;11.18;;;;;;;-3.50;73.77;99534.38;2626118;28;20087;-78
2022/03/24 04:18:35;;;;;;;27.38;12.48;;;;;;;-3.51;74.16;99527.50;2626121;28;20047;-78
2022/03/24 04:19:50;;;;;;;28.17;11.18;;;;;;;-3.51;74.26;99532.63;2626093;28;20449;-78
2022/03/24 04:21:07;;;;;;;27.20;11.68;;;;;;;-3.48;74.16;99529.34;2625771;28;20509;-78
2022/03/24 04:22:22;;;;;;;25.80;11.02;;;;;;;-3.47;73.64;99528.53;2626149;28;20078;-79
2022/03/24 04:23:42;;;;;;;25.25;11.45;;;;;;;-3.53;73.13;99520.53;2626733;28;20059;-79
2022/03/24 04:24:58;;;;;;;26.60;11.20;;;;;;;-3.59;74.44;99529.72;2626446;28;20090;-78
2022/03/24 04:26:13;;;;;;;25.02;11.20;;;;;;;-3.56;74.81;99528.97;2625836;28;20044;-79
2022/03/24 04:27:29;;;;;;;27.02;11.35;;;;;;;-3.56;74.63;99529.84;2624724;28;20044;-78
2022/03/24 04:28:45;;;;;;;26.95;11.77;;;;;;;-3.60;74.35;99525.41;2626092;28;20400;-79
2022/03/24 04:30:01;;;;;;;25.30;11.13;;;;;;;-3.62;74.09;99526.13;2626669;28;20048;-78
2022/03/24 04:31:16;;;;;;;23.35;10.70;;;;;;;-3.63;73.89;99535.50;2626933;28;20084;-79
2022/03/24 04:32:32;;;;;;;20.98;10.35;;;;;;;-3.63;73.25;99527.81;2626623;28;20048;-81
2022/03/24 04:33:48;;;;;;;21.25;10.32;;;;;;;-3.63;74.82;99532.94;2626561;28;20568;-80
2022/03/24 04:35:05;;;;;;;24.23;10.93;;;;;;;-3.63;74.47;99532.03;2626540;28;20044;-79
2022/03/24 04:36:21;;;;;;;25.23;10.52;;;;;;;-3.65;73.59;99524.28;2626232;28;20044;-78
2022/03/24 04:37:37;;;;;;;24.88;10.45;;;;;;;-3.69;74.17;99522.41;2626637;28;20143;-81
2022/03/24 04:38:53;;;;;;;26.98;11.15;;;;;;;-3.70;74.47;99528.31;2625545;28;20083;-79
2022/03/24 04:40:11;;;;;;;21.90;9.80;;;;;;;-3.71;74.61;99526.56;2627048;28;20052;-79
2022/03/24 04:41:27;;;;;;;24.45;11.23;;;;;;;-3.69;75.13;99532.63;2626841;28;20052;-79
2022/03/24 04:42:44;;;;;;;23.80;10.95;;;;;;;-3.68;76.02;99526.72;2627087;28;20143;-81
2022/03/24 04:44:01;;;;;;;25.88;10.98;;;;;;;-3.72;77.04;99527.38;2625776;28;20047;-78
2022/03/24 04:45:17;;;;;;;27.52;10.77;;;;;;;-3.69;76.27;99533.53;2626627;28;20125;-79
2022/03/24 04:46:33;;;;;;;24.95;11.48;;;;;;;-3.66;75.97;99530.22;2626094;28;20071;-77
2022/03/24 04:47:49;;;;;;;28.95;11.60;;;;;;;-3.63;75.52;99522.69;2626983;28;20573;-78
2022/03/24 04:49:05;;;;;;;25.88;11.15;;;;;;;-3.55;74.98;99526.47;2626364;28;20800;-78
2022/03/24 04:50:21;;;;;;;24.13;11.18;;;;;;;-3.51;74.72;99526.59;2627033;28;20055;-79
2022/03/24 04:51:37;;;;;;;24.30;10.95;;;;;;;-3.49;74.54;99527.56;2626536;28;20214;-78
2022/03/24 04:52:52;;;;;;;24.88;10.55;;;;;;;-3.48;74.23;99531.88;2626426;28;20048;-78
2022/03/24 04:54:08;;;;;;;25.75;11.38;;;;;;;-3.48;73.79;99526.78;2626380;28;20040;-78
2022/03/24 04:55:24;;;;;;;27.48;10.27;;;;;;;-3.50;73.54;99526.69;2627051;28;20048;-78
2022/03/24 04:56:40;;;;;;;25.52;10.55;;;;;;;-3.59;73.64;99527.16;2625925;28;20048;-79
2022/03/24 04:57:55;;;;;;;27.17;11.38;;;;;;;-3.63;73.34;99527.81;2625679;28;20056;-78
2022/03/24 04:59:11;;;;;;;21.90;10.43;;;;;;;-3.65;73.11;99524.28;2627322;28;20494;-79
2022/03/24 05:00:26;;;;;;;22.88;10.38;;;;;;;-3.69;73.49;99530.06;2626804;28;20138;-78
2022/03/24 05:01:42;;;;;;;25.63;10.85;;;;;;;-3.76;73.94;99523.78;2626833;28;20380;-79
2022/03/24 05:02:59;;;;;;;23.90;10.07;;;;;;;-3.82;73.92;99526.06;2625170;28;20061;-78
2022/03/24 05:04:15;;;;;;;23.02;10.10;;;;;;;-3.88;74.71;99533.44;2626037;28;20083;-78
2022/03/24 05:05:31;;;;;;;25.10;9.77;;;;;;;-3.99;75.03;99532.94;2626559;28;20063;-80
2022/03/24 05:06:46;;;;;;;20.27;9.32;;;;;;;-4.07;75.12;99532.56;2626333;28;20912;-78
2022/03/24 05:08:03;;;;;;;28.95;10.20;;;;;;;-4.12;75.25;99532.34;2625983;28;20512;-78
2022/03/24 05:09:19;;;;;;;27.05;10.02;;;;;;;-4.16;75.16;99535.56;2626267;28;20410;-78
2022/03/24 05:10:35;;;;;;;23.27;9.82;;;;;;;-4.20;75.13;99533.63;2626424;28;20184;-78
2022/03/24 05:11:50;;;;;;;25.23;10.75;;;;;;;-4.22;75.77;99534.38;2626950;28;20055;-77
2022/03/24 05:13:06;;;;;;;26.52;9.90;;;;;;;-4.16;75.64;99540.69;2626805;28;20105;-78
2022/03/24 05:14:22;;;;;;;22.80;9.68;;;;;;;-4.21;75.35;99536.13;2626669;28;20044;-78
2022/03/24 05:15:38;;;;;;;23.33;10.27;;;;;;;-4.20;75.95;99543.00;2626365;28;20302;-78
2022/03/24 05:16:53;;;;;;;25.38;10.38;;;;;;;-4.20;76.71;99540.44;2627108;28;20048;-78
2022/03/24 05:18:09;;;;;;;21.40;9.75;;;;;;;-4.17;75.66;99544.03;2626329;28;20150;-78
2022/03/24 05:19:25;;;;;;;23.75;10.50;;;;;;;-4.16;76.35;99542.34;2625756;28;20052;-82
2022/03/24 05:20:41;;;;;;;27.50;11.40;;;;;;;-4.11;76.77;99541.78;2626499;28;20395;-78
2022/03/24 05:21:56;;;;;;;24.65;10.27;;;;;;;-4.06;76.49;99539.44;2626424;28;20113;-79
2022/03/24 05:23:12;;;;;;;26.55;11.27;;;;;;;-4.06;76.00;99536.00;2626886;28;20040;-78
2022/03/24 05:24:28;;;;;;;26.02;10.82;;;;;;;-4.03;75.76;99546.41;2626956;28;20483;-78
2022/03/24 05:25:47;;;;;;;23.08;9.90;;;;;;;-4.00;75.46;99542.28;2628956;28;20056;-80
2022/03/24 05:27:05;;;;;;;24.83;11.43;;;;;;;-3.98;75.18;99539.81;2628164;28;20044;-78
2022/03/24 05:28:20;;;;;;;21.70;10.75;;;;;;;-3.94;75.06;99548.50;2628535;28;20048;-78
2022/03/24 05:29:36;;;;;;;26.48;11.00;;;;;;;-3.90;74.44;99547.84;2628412;28;20052;-77
2022/03/24 05:30:52;;;;;;;22.67;10.70;;;;;;;-3.85;74.33;99542.16;2628559;28;20383;-78
2022/03/24 05:32:08;;;;;;;24.27;10.27;;;;;;;-3.78;73.90;99547.53;2628106;28;20840;-78
2022/03/24 05:33:24;;;;;;;24.77;11.32;;;;;;;-3.76;73.73;99541.69;2628562;28;20063;-78
2022/03/24 05:34:40;;;;;;;25.45;11.10;;;;;;;-3.73;74.40;99541.84;2628137;28;20048;-78
2022/03/24 05:35:56;;;;;;;21.77;10.30;;;;;;;-3.68;74.04;99549.75;2628305;28;20048;-78
2022/03/24 05:37:13;;;;;;;21.92;10.60;;;;;;;-3.62;74.20;99549.16;2628406;28;20052;-78
2022/03/24 05:38:28;;;;;;;24.58;11.40;;;;;;;-3.61;73.74;99548.34;2628198;28;20055;-78
2022/03/24 05:39:44;;;;;;;26.33;11.13;;;;;;;-3.60;74.01;99542.41;2628680;28;20059;-78
2022/03/24 05:40:59;;;;;;;25.40;11.27;;;;;;;-3.58;74.32;99546.81;2628303;28;20052;-77
2022/03/24 05:42:15;;;;;;;23.17;11.40;;;;;;;-3.57;74.01;99551.13;2628439;28;20647;-82
2022/03/24 05:43:31;;;;;;;27.35;10.80;;;;;;;-3.59;74.86;99555.31;2628452;28;20083;-81
2022/03/24 05:44:47;;;;;;;23.40;10.60;;;;;;;-3.57;74.70;99550.22;2628431;28;20167;-78
2022/03/24 05:46:03;;;;;;;25.00;11.40;;;;;;;-3.56;74.86;99552.03;2628247;28;20048;-78
2022/03/24 05:47:19;;;;;;;21.52;10.77;;;;;;;-3.51;74.21;99557.31;2628351;28;20044;-77
2022/03/24 05:48:35;;;;;;;22.83;10.30;;;;;;;-3.46;74.11;99554.19;2628324;28;20525;-78
2022/03/24 05:49:51;;;;;;;30.15;10.43;;;;;;;-3.46;74.52;99555.88;2628649;28;20052;-77
2022/03/24 05:51:06;;;;;;;28.38;10.93;;;;;;;-3.42;75.18;99555.22;2627640;28;20040;-77
2022/03/24 05:52:22;;;;;;;27.17;10.85;;;;;;;-3.38;75.63;99561.34;2627638;28;20056;-79